sensor_id;sensor_type;location;lat;lon;timestamp;pressure;altitude;pressure_sealevel;temperature;humidity
13732;BME280;6937;56.096;12.664;2023-04-07T00:00:53;102049.19;;;1.94;100.00
13732;BME280;6937;56.096;12.664;2023-04-07T00:03:18;102052.69;;;1.94;100.00
13732;BME280;6937;56.096;12.664;2023-04-07T00:05:43;102050.06;;;1.91;100.00
13732;BME280;6937;56.096;12.664;2023-04-07T00:08:09;102047.47;;;1.90;100.00
13732;BME280;6937;56.096;12.664;2023-04-07T00:10:35;102053.69;;;1.87;100.00
13732;BME280;6937;56.096;12.664;2023-04-07T00:13:00;102047.56;;;1.84;100.00
13732;BME280;6937;56.096;12.664;2023-04-07T00:15:26;102045.84;;;1.81;100.00
13732;BME280;6937;56.096;12.664;2023-04-07T00:17:52;102046.75;;;1.80;100.00
13732;BME280;6937;56.096;12.664;2023-04-07T00:20:17;102043.28;;;1.77;100.00
13732;BME280;6937;56.096;12.664;2023-04-07T00:22:43;102031.03;;;1.73;100.00
13732;BME280;6937;56.096;12.664;2023-04-07T00:25:08;102040.66;;;1.77;100.00
13732;BME280;6937;56.096;12.664;2023-04-07T00:27:34;102028.41;;;1.73;100.00
13732;BME280;6937;56.096;12.664;2023-04-07T00:30:00;102031.97;;;1.72;100.00
13732;BME280;6937;56.096;12.664;2023-04-07T00:32:25;102030.22;;;1.69;100.00
13732;BME280;6937;56.096;12.664;2023-04-07T00:34:51;102032.03;;;1.66;100.00
13732;BME280;6937;56.096;12.664;2023-04-07T00:37:16;102025.06;;;1.63;100.00
13732;BME280;6937;56.096;12.664;2023-04-07T00:39:41;102037.31;;;1.66;100.00
13732;BME280;6937;56.096;12.664;2023-04-07T00:42:07;102026.00;;;1.59;100.00
13732;BME280;6937;56.096;12.664;2023-04-07T00:44:33;102030.41;;;1.59;100.00
13732;BME280;6937;56.096;12.664;2023-04-07T00:46:58;102032.22;;;1.55;100.00
13732;BME280;6937;56.096;12.664;2023-04-07T00:49:25;102031.38;;;1.52;100.00
13732;BME280;6937;56.096;12.664;2023-04-07T00:51:53;102035.78;;;1.53;100.00
13732;BME280;6937;56.096;12.664;2023-04-07T00:54:18;102028.81;;;1.47;100.00
13732;BME280;6937;56.096;12.664;2023-04-07T00:56:43;102038.53;;;1.45;100.00
13732;BME280;6937;56.096;12.664;2023-04-07T00:59:09;102034.13;;;1.45;100.00
13732;BME280;6937;56.096;12.664;2023-04-07T01:04:12;102024.41;;;1.48;100.00
13732;BME280;6937;56.096;12.664;2023-04-07T01:06:47;102023.50;;;1.50;100.00
13732;BME280;6937;56.096;12.664;2023-04-07T01:09:20;102027.00;;;1.51;100.00
13732;BME280;6937;56.096;12.664;2023-04-07T01:12:04;102026.16;;;1.49;100.00
13732;BME280;6937;56.096;12.664;2023-04-07T01:14:34;102024.41;;;1.48;100.00
13732;BME280;6937;56.096;12.664;2023-04-07T01:17:05;102016.56;;;1.44;100.00
13732;BME280;6937;56.096;12.664;2023-04-07T01:19:49;102017.59;;;1.34;100.00
13732;BME280;6937;56.096;12.664;2023-04-07T01:22:23;102018.59;;;1.27;100.00
13732;BME280;6937;56.096;12.664;2023-04-07T01:25:26;102014.16;;;1.31;100.00
13732;BME280;6937;56.096;12.664;2023-04-07T01:30:22;102009.00;;;1.23;100.00
13732;BME280;6937;56.096;12.664;2023-04-07T01:32:51;102012.47;;;1.25;100.00
13732;BME280;6937;56.096;12.664;2023-04-07T01:35:18;102004.56;;;1.24;100.00
13732;BME280;6937;56.096;12.664;2023-04-07T01:37:45;102009.06;;;1.19;100.00
13732;BME280;6937;56.096;12.664;2023-04-07T01:40:13;102007.44;;;1.07;100.00
13732;BME280;6937;56.096;12.664;2023-04-07T01:42:40;102010.19;;;1.01;100.00
13732;BME280;6937;56.096;12.664;2023-04-07T01:45:06;102011.13;;;0.94;100.00
13732;BME280;6937;56.096;12.664;2023-04-07T01:47:33;102007.75;;;0.86;100.00
13732;BME280;6937;56.096;12.664;2023-04-07T01:50:02;102011.31;;;0.82;100.00
13732;BME280;6937;56.096;12.664;2023-04-07T01:52:34;102014.03;;;0.73;100.00
13732;BME280;6937;56.096;12.664;2023-04-07T01:55:00;102007.09;;;0.66;100.00
13732;BME280;6937;56.096;12.664;2023-04-07T01:57:26;102009.78;;;0.61;100.00
13732;BME280;6937;56.096;12.664;2023-04-07T01:59:52;102022.06;;;0.62;100.00
13732;BME280;6937;56.096;12.664;2023-04-07T02:02:17;102014.16;;;0.62;100.00
13732;BME280;6937;56.096;12.664;2023-04-07T02:04:48;102007.09;;;0.64;100.00
13732;BME280;6937;56.096;12.664;2023-04-07T02:07:20;102007.13;;;0.63;100.00
13732;BME280;6937;56.096;12.664;2023-04-07T02:09:47;102012.44;;;0.57;100.00
13732;BME280;6937;56.096;12.664;2023-04-07T02:12:14;102011.66;;;0.50;100.00
13732;BME280;6937;56.096;12.664;2023-04-07T02:14:41;102009.94;;;0.47;100.00
13732;BME280;6937;56.096;12.664;2023-04-07T02:17:07;102012.63;;;0.41;100.00
13732;BME280;6937;56.096;12.664;2023-04-07T02:19:33;102016.19;;;0.37;100.00
13732;BME280;6937;56.096;12.664;2023-04-07T02:22:02;102010.06;;;0.35;100.00
13732;BME280;6937;56.096;12.664;2023-04-07T02:24:27;102018.88;;;0.33;100.00
13732;BME280;6937;56.096;12.664;2023-04-07T02:26:53;102018.91;;;0.27;100.00
13732;BME280;6937;56.096;12.664;2023-04-07T02:29:18;102015.47;;;0.22;100.00
13732;BME280;6937;56.096;12.664;2023-04-07T02:31:43;102012.88;;;0.19;100.00
13732;BME280;6937;56.096;12.664;2023-04-07T02:34:09;102019.94;;;0.14;100.00
13732;BME280;6937;56.096;12.664;2023-04-07T02:36:34;102020.81;;;0.14;100.00
13732;BME280;6937;56.096;12.664;2023-04-07T02:39:00;102015.59;;;0.11;100.00
13732;BME280;6937;56.096;12.664;2023-04-07T02:41:25;102019.13;;;0.07;100.00
13732;BME280;6937;56.096;12.664;2023-04-07T02:43:51;102016.50;;;0.04;100.00
13732;BME280;6937;56.096;12.664;2023-04-07T02:46:17;102018.28;;;0.00;100.00
13732;BME280;6937;56.096;12.664;2023-04-07T02:48:42;102007.81;;;-0.01;100.00
13732;BME280;6937;56.096;12.664;2023-04-07T02:51:08;102013.09;;;-0.06;100.00
13732;BME280;6937;56.096;12.664;2023-04-07T02:53:33;102013.09;;;-0.06;100.00
13732;BME280;6937;56.096;12.664;2023-04-07T02:55:58;102008.72;;;-0.07;100.00
13732;BME280;6937;56.096;12.664;2023-04-07T02:58:23;102008.75;;;-0.10;100.00
13732;BME280;6937;56.096;12.664;2023-04-07T03:00:49;102009.63;;;-0.11;100.00
13732;BME280;6937;56.096;12.664;2023-04-07T03:03:14;102012.28;;;-0.14;100.00
13732;BME280;6937;56.096;12.664;2023-04-07T03:05:40;102008.81;;;-0.17;100.00
13732;BME280;6937;56.096;12.664;2023-04-07T03:08:05;102010.59;;;-0.21;100.00
13732;BME280;6937;56.096;12.664;2023-04-07T03:10:31;102001.88;;;-0.26;100.00
13732;BME280;6937;56.096;12.664;2023-04-07T03:12:56;102003.69;;;-0.32;100.00
13732;BME280;6937;56.096;12.664;2023-04-07T03:15:21;102008.13;;;-0.40;100.00
13732;BME280;6937;56.096;12.664;2023-04-07T03:17:47;102007.31;;;-0.47;100.00
13732;BME280;6937;56.096;12.664;2023-04-07T03:20:12;102000.34;;;-0.50;100.00
13732;BME280;6937;56.096;12.664;2023-04-07T03:22:37;102002.97;;;-0.53;100.00
13732;BME280;6937;56.096;12.664;2023-04-07T03:25:03;101996.84;;;-0.55;100.00
13732;BME280;6937;56.096;12.664;2023-04-07T03:27:29;101999.47;;;-0.53;100.00
13732;BME280;6937;56.096;12.664;2023-04-07T03:29:54;101996.00;;;-0.57;100.00
13732;BME280;6937;56.096;12.664;2023-04-07T03:32:20;101992.50;;;-0.59;100.00
13732;BME280;6937;56.096;12.664;2023-04-07T03:34:45;101990.75;;;-0.60;100.00
13732;BME280;6937;56.096;12.664;2023-04-07T03:37:11;101995.13;;;-0.59;100.00
13732;BME280;6937;56.096;12.664;2023-04-07T03:39:36;101990.75;;;-0.60;100.00
13732;BME280;6937;56.096;12.664;2023-04-07T03:42:02;101989.88;;;-0.59;100.00
13732;BME280;6937;56.096;12.664;2023-04-07T03:44:28;101992.50;;;-0.59;100.00
13732;BME280;6937;56.096;12.664;2023-04-07T03:46:53;101992.53;;;-0.60;100.00
13732;BME280;6937;56.096;12.664;2023-04-07T03:49:18;101990.75;;;-0.60;100.00
13732;BME280;6937;56.096;12.664;2023-04-07T03:51:44;101987.28;;;-0.60;100.00
13732;BME280;6937;56.096;12.664;2023-04-07T03:54:09;101994.28;;;-0.61;100.00
13732;BME280;6937;56.096;12.664;2023-04-07T03:56:35;101992.53;;;-0.60;100.00
13732;BME280;6937;56.096;12.664;2023-04-07T03:59:01;101997.78;;;-0.62;100.00
13732;BME280;6937;56.096;12.664;2023-04-07T04:01:27;101993.41;;;-0.63;100.00
13732;BME280;6937;56.096;12.664;2023-04-07T04:03:52;101990.78;;;-0.63;100.00
13732;BME280;6937;56.096;12.664;2023-04-07T04:06:17;101990.78;;;-0.63;100.00
13732;BME280;6937;56.096;12.664;2023-04-07T04:08:43;101985.56;;;-0.64;100.00
13732;BME280;6937;56.096;12.664;2023-04-07T04:11:08;101982.94;;;-0.67;100.00
13732;BME280;6937;56.096;12.664;2023-04-07T04:13:33;101981.19;;;-0.67;100.00
13732;BME280;6937;56.096;12.664;2023-04-07T04:15:59;101990.84;;;-0.70;100.00
13732;BME280;6937;56.096;12.664;2023-04-07T04:18:24;101983.00;;;-0.73;100.00
13732;BME280;6937;56.096;12.664;2023-04-07T04:20:50;101987.38;;;-0.75;100.00
13732;BME280;6937;56.096;12.664;2023-04-07T04:23:15;101980.41;;;-0.82;100.00
13732;BME280;6937;56.096;12.664;2023-04-07T04:25:41;101996.16;;;-0.82;100.00
13732;BME280;6937;56.096;12.664;2023-04-07T04:28:06;101984.84;;;-0.87;100.00
13732;BME280;6937;56.096;12.664;2023-04-07T04:30:31;101990.97;;;-0.87;100.00
13732;BME280;6937;56.096;12.664;2023-04-07T04:32:57;101990.06;;;-0.89;100.00
13732;BME280;6937;56.096;12.664;2023-04-07T04:35:22;101991.84;;;-0.91;100.00
13732;BME280;6937;56.096;12.664;2023-04-07T04:37:48;101988.31;;;-0.90;100.00
13732;BME280;6937;56.096;12.664;2023-04-07T04:40:13;101983.97;;;-0.91;100.00
13732;BME280;6937;56.096;12.664;2023-04-07T04:42:39;101983.09;;;-0.93;100.00
13732;BME280;6937;56.096;12.664;2023-04-07T04:45:05;101990.97;;;-0.93;100.00
13732;BME280;6937;56.096;12.664;2023-04-07T04:47:30;101990.09;;;-0.92;100.00
13732;BME280;6937;56.096;12.664;2023-04-07T04:49:56;101985.72;;;-0.91;100.00
13732;BME280;6937;56.096;12.664;2023-04-07T04:52:21;101990.09;;;-0.92;100.00
13732;BME280;6937;56.096;12.664;2023-04-07T04:54:46;101984.84;;;-0.90;100.00
13732;BME280;6937;56.096;12.664;2023-04-07T04:57:12;101989.19;;;-0.89;100.00
13732;BME280;6937;56.096;12.664;2023-04-07T04:59:37;101984.81;;;-0.89;100.00
13732;BME280;6937;56.096;12.664;2023-04-07T05:02:04;101983.09;;;-0.87;100.00
13732;BME280;6937;56.096;12.664;2023-04-07T05:04:29;101989.19;;;-0.85;100.00
13732;BME280;6937;56.096;12.664;2023-04-07T05:06:54;101988.31;;;-0.85;100.00
13732;BME280;6937;56.096;12.664;2023-04-07T05:09:20;101992.66;;;-0.81;100.00
13732;BME280;6937;56.096;12.664;2023-04-07T05:11:45;101987.38;;;-0.77;100.00
13732;BME280;6937;56.096;12.664;2023-04-07T05:14:11;101984.72;;;-0.74;100.00
13732;BME280;6937;56.096;12.664;2023-04-07T05:16:36;101982.09;;;-0.71;100.00
13732;BME280;6937;56.096;12.664;2023-04-07T05:19:02;101982.97;;;-0.70;100.00
13732;BME280;6937;56.096;12.664;2023-04-07T05:21:27;101983.84;;;-0.68;100.00
13732;BME280;6937;56.096;12.664;2023-04-07T05:23:52;101986.41;;;-0.64;100.00
13732;BME280;6937;56.096;12.664;2023-04-07T05:26:18;101983.75;;;-0.59;100.00
13732;BME280;6937;56.096;12.664;2023-04-07T05:28:43;101985.50;;;-0.57;100.00
13732;BME280;6937;56.096;12.664;2023-04-07T05:31:09;101979.34;;;-0.53;100.00
13732;BME280;6937;56.096;12.664;2023-04-07T05:33:34;101982.81;;;-0.49;100.00
13732;BME280;6937;56.096;12.664;2023-04-07T05:36:00;101974.00;;;-0.45;100.00
13732;BME280;6937;56.096;12.664;2023-04-07T05:38:25;101976.59;;;-0.39;100.00
13732;BME280;6937;56.096;12.664;2023-04-07T05:40:50;101971.31;;;-0.34;100.00
13732;BME280;6937;56.096;12.664;2023-04-07T05:43:16;101973.88;;;-0.30;100.00
13732;BME280;6937;56.096;12.664;2023-04-07T05:45:42;101970.34;;;-0.24;100.00
13732;BME280;6937;56.096;12.664;2023-04-07T05:48:07;101965.06;;;-0.20;100.00
13732;BME280;6937;56.096;12.664;2023-04-07T05:50:32;101965.03;;;-0.15;100.00
13732;BME280;6937;56.096;12.664;2023-04-07T05:52:58;101960.59;;;-0.10;100.00
13732;BME280;6937;56.096;12.664;2023-04-07T05:55:23;101963.13;;;-0.01;100.00
13732;BME280;6937;56.096;12.664;2023-04-07T05:57:49;101966.56;;;0.04;100.00
13732;BME280;6937;56.096;12.664;2023-04-07T06:00:14;101954.31;;;0.05;100.00
13732;BME280;6937;56.096;12.664;2023-04-07T06:02:40;101947.28;;;0.07;100.00
13732;BME280;6937;56.096;12.664;2023-04-07T06:05:06;101954.19;;;0.15;100.00
13732;BME280;6937;56.096;12.664;2023-04-07T06:07:31;101948.94;;;0.18;100.00
13732;BME280;6937;56.096;12.664;2023-04-07T06:09:57;101953.25;;;0.22;100.00
13732;BME280;6937;56.096;12.664;2023-04-07T06:12:22;101947.94;;;0.28;100.00
13732;BME280;6937;56.096;12.664;2023-04-07T06:14:54;101949.59;;;0.34;100.00
13732;BME280;6937;56.096;12.664;2023-04-07T06:17:21;101947.78;;;0.39;100.00
13732;BME280;6937;56.096;12.664;2023-04-07T06:19:46;101949.50;;;0.43;100.00
13732;BME280;6937;56.096;12.664;2023-04-07T06:22:12;101947.63;;;0.53;100.00
13732;BME280;6937;56.096;12.664;2023-04-07T06:24:37;101947.56;;;0.57;100.00
13732;BME280;6937;56.096;12.664;2023-04-07T06:27:02;101939.63;;;0.60;100.00
13732;BME280;6937;56.096;12.664;2023-04-07T06:29:29;101939.63;;;0.62;100.00
13732;BME280;6937;56.096;12.664;2023-04-07T06:31:54;101933.59;;;0.55;100.00
13732;BME280;6937;56.096;12.664;2023-04-07T06:34:20;101938.81;;;0.57;100.00
13732;BME280;6937;56.096;12.664;2023-04-07T06:36:46;101939.66;;;0.59;100.00
13732;BME280;6937;56.096;12.664;2023-04-07T06:39:11;101936.06;;;0.64;100.00
13732;BME280;6937;56.096;12.664;2023-04-07T06:41:36;101928.09;;;0.72;100.00
13732;BME280;6937;56.096;12.664;2023-04-07T06:44:03;101934.16;;;0.78;100.00
13732;BME280;6937;56.096;12.664;2023-04-07T06:46:28;101919.16;;;0.85;100.00
13732;BME280;6937;56.096;12.664;2023-04-07T06:48:54;101926.06;;;0.92;100.00
13732;BME280;6937;56.096;12.664;2023-04-07T06:51:19;101925.03;;;1.02;100.00
13732;BME280;6937;56.096;12.664;2023-04-07T06:53:44;101924.84;;;1.16;100.00
13732;BME280;6937;56.096;12.664;2023-04-07T06:56:12;101924.69;;;1.25;100.00
13732;BME280;6937;56.096;12.664;2023-04-07T06:58:38;101921.16;;;1.27;100.00
13732;BME280;6937;56.096;12.664;2023-04-07T07:01:04;101918.53;;;1.24;100.00
13732;BME280;6937;56.096;12.664;2023-04-07T07:03:31;101918.59;;;1.21;100.00
13732;BME280;6937;56.096;12.664;2023-04-07T07:05:58;101914.28;;;1.17;100.00
13732;BME280;6937;56.096;12.664;2023-04-07T07:08:24;101918.72;;;1.15;100.00
13732;BME280;6937;56.096;12.664;2023-04-07T07:10:50;101921.34;;;1.15;100.00
13732;BME280;6937;56.096;12.664;2023-04-07T07:13:16;101916.97;;;1.14;100.00
13732;BME280;6937;56.096;12.664;2023-04-07T07:15:42;101916.91;;;1.17;100.00
13732;BME280;6937;56.096;12.664;2023-04-07T07:18:07;101916.91;;;1.19;100.00
13732;BME280;6937;56.096;12.664;2023-04-07T07:20:32;101917.72;;;1.22;100.00
13732;BME280;6937;56.096;12.664;2023-04-07T07:22:58;101910.66;;;1.24;100.00
13732;BME280;6937;56.096;12.664;2023-04-07T07:25:24;101907.94;;;1.29;100.00
13732;BME280;6937;56.096;12.664;2023-04-07T07:27:51;101909.66;;;1.31;100.00
13732;BME280;6937;56.096;12.664;2023-04-07T07:30:18;101911.25;;;1.41;100.00
13732;BME280;6937;56.096;12.664;2023-04-07T07:32:44;101903.19;;;1.51;100.00
13732;BME280;6937;56.096;12.664;2023-04-07T07:35:10;101908.25;;;1.63;100.00
13732;BME280;6937;56.096;12.664;2023-04-07T07:37:35;101896.66;;;1.73;100.00
13732;BME280;6937;56.096;12.664;2023-04-07T07:40:00;101897.38;;;1.81;100.00
13732;BME280;6937;56.096;12.664;2023-04-07T07:42:26;101900.81;;;1.87;100.00
13732;BME280;6937;56.096;12.664;2023-04-07T07:44:51;101894.38;;;2.01;100.00
13732;BME280;6937;56.096;12.664;2023-04-07T07:47:16;101889.78;;;2.12;100.00
13732;BME280;6937;56.096;12.664;2023-04-07T07:49:42;101889.63;;;2.19;100.00
13732;BME280;6937;56.096;12.664;2023-04-07T07:52:07;101886.75;;;2.31;100.00
13732;BME280;6937;56.096;12.664;2023-04-07T07:54:32;101886.59;;;2.37;100.00
13732;BME280;6937;56.096;12.664;2023-04-07T07:56:58;101884.69;;;2.46;100.00
13732;BME280;6937;56.096;12.664;2023-04-07T07:59:23;101884.59;;;2.50;100.00
13732;BME280;6937;56.096;12.664;2023-04-07T08:01:48;101895.88;;;2.57;100.00
13732;BME280;6937;56.096;12.664;2023-04-07T08:04:14;101897.53;;;2.62;100.00
13732;BME280;6937;56.096;12.664;2023-04-07T08:06:39;101899.13;;;2.69;100.00
13732;BME280;6937;56.096;12.664;2023-04-07T08:09:06;101906.09;;;2.73;100.00
13732;BME280;6937;56.096;12.664;2023-04-07T08:11:32;101905.13;;;2.77;100.00
13732;BME280;6937;56.096;12.664;2023-04-07T08:13:57;101912.03;;;2.83;100.00
13732;BME280;6937;56.096;12.664;2023-04-07T08:16:22;101913.69;;;2.87;100.00
13732;BME280;6937;56.096;12.664;2023-04-07T08:18:48;101916.22;;;2.91;100.00
13732;BME280;6937;56.096;12.664;2023-04-07T08:21:13;101916.13;;;2.96;100.00
13732;BME280;6937;56.096;12.664;2023-04-07T08:23:39;101918.63;;;3.02;100.00
13732;BME280;6937;56.096;12.664;2023-04-07T08:26:05;101914.06;;;3.09;100.00
13732;BME280;6937;56.096;12.664;2023-04-07T08:28:30;101924.50;;;3.15;100.00
13732;BME280;6937;56.096;12.664;2023-04-07T08:30:55;101924.50;;;3.15;100.00
13732;BME280;6937;56.096;12.664;2023-04-07T08:33:21;101924.44;;;3.18;100.00
13732;BME280;6937;56.096;12.664;2023-04-07T08:35:46;101926.03;;;3.23;100.00
13732;BME280;6937;56.096;12.664;2023-04-07T08:38:11;101924.19;;;3.27;100.00
13732;BME280;6937;56.096;12.664;2023-04-07T08:40:37;101927.53;;;3.35;100.00
13732;BME280;6937;56.096;12.664;2023-04-07T08:43:07;101915.00;;;3.43;100.00
13732;BME280;6937;56.096;12.664;2023-04-07T08:45:37;101919.28;;;3.49;100.00
13732;BME280;6937;56.096;12.664;2023-04-07T08:48:06;101923.53;;;3.54;100.00
13732;BME280;6937;56.096;12.664;2023-04-07T08:50:37;101921.69;;;3.58;100.00
13732;BME280;6937;56.096;12.664;2023-04-07T08:53:06;101926.81;;;3.64;100.00
13732;BME280;6937;56.096;12.664;2023-04-07T08:55:34;101932.56;;;3.81;100.00
13732;BME280;6937;56.096;12.664;2023-04-07T08:58:00;101936.66;;;3.93;100.00
13732;BME280;6937;56.096;12.664;2023-04-07T09:00:26;101939.00;;;4.03;100.00
13732;BME280;6937;56.096;12.664;2023-04-07T09:02:52;101936.16;;;4.11;100.00
13732;BME280;6937;56.096;12.664;2023-04-07T09:05:17;101944.75;;;4.19;100.00
13732;BME280;6937;56.096;12.664;2023-04-07T09:07:43;101943.59;;;4.29;100.00
13732;BME280;6937;56.096;12.664;2023-04-07T09:10:09;101951.19;;;4.41;100.00
13732;BME280;6937;56.096;12.664;2023-04-07T09:12:35;101941.28;;;4.48;100.00
13732;BME280;6937;56.096;12.664;2023-04-07T09:15:00;101958.09;;;4.47;100.00
13732;BME280;6937;56.096;12.664;2023-04-07T09:17:27;101947.25;;;4.56;100.00
13732;BME280;6937;56.096;12.664;2023-04-07T09:19:56;101948.59;;;4.70;100.00
13732;BME280;6937;56.096;12.664;2023-04-07T09:22:35;101957.09;;;4.80;100.00
13732;BME280;6937;56.096;12.664;2023-04-07T09:25:15;101955.06;;;4.90;100.00
13732;BME280;6937;56.096;12.664;2023-04-07T09:27:59;101970.00;;;4.92;100.00
13732;BME280;6937;56.096;12.664;2023-04-07T09:30:26;101975.06;;;5.00;100.00
13732;BME280;6937;56.096;12.664;2023-04-07T09:32:52;101989.69;;;5.13;100.00
13732;BME280;6937;56.096;12.664;2023-04-07T09:35:18;101992.13;;;5.20;100.00
13732;BME280;6937;56.096;12.664;2023-04-07T09:38:00;102000.50;;;5.34;100.00
13732;BME280;6937;56.096;12.664;2023-04-07T09:40:26;102012.50;;;5.46;100.00
13732;BME280;6937;56.096;12.664;2023-04-07T09:42:51;102021.00;;;5.57;100.00
13732;BME280;6937;56.096;12.664;2023-04-07T09:45:26;102027.81;;;5.66;100.00
13732;BME280;6937;56.096;12.664;2023-04-07T09:47:52;102040.81;;;5.73;100.00
13732;BME280;6937;56.096;12.664;2023-04-07T09:50:39;102051.13;;;5.82;100.00
13732;BME280;6937;56.096;12.664;2023-04-07T09:53:05;102061.69;;;5.84;100.00
13732;BME280;6937;56.096;12.664;2023-04-07T09:55:31;102063.31;;;5.90;100.00
13732;BME280;6937;56.096;12.664;2023-04-07T09:57:58;102075.44;;;5.97;100.00
13732;BME280;6937;56.096;12.664;2023-04-07T10:00:24;102084.09;;;6.03;100.00
13732;BME280;6937;56.096;12.664;2023-04-07T10:02:50;102081.44;;;6.03;100.00
13732;BME280;6937;56.096;12.664;2023-04-07T10:05:17;102076.84;;;6.08;100.00
13732;BME280;6937;56.096;12.664;2023-04-07T10:07:45;102089.09;;;6.12;100.00
13732;BME280;6937;56.096;12.664;2023-04-07T10:10:10;102089.72;;;6.20;100.00
13732;BME280;6937;56.096;12.664;2023-04-07T10:12:36;102090.59;;;6.21;100.00
13732;BME280;6937;56.096;12.664;2023-04-07T10:15:02;102104.41;;;6.30;100.00
13732;BME280;6937;56.096;12.664;2023-04-07T10:17:29;102112.34;;;6.32;100.00
13732;BME280;6937;56.096;12.664;2023-04-07T10:19:57;102108.59;;;6.38;100.00
13732;BME280;6937;56.096;12.664;2023-04-07T10:22:26;102119.78;;;6.47;100.00
13732;BME280;6937;56.096;12.664;2023-04-07T10:25:05;102135.59;;;6.52;100.00
13732;BME280;6937;56.096;12.664;2023-04-07T10:27:38;102140.41;;;6.65;100.00
13732;BME280;6937;56.096;12.664;2023-04-07T10:30:12;102152.41;;;6.77;100.00
13732;BME280;6937;56.096;12.664;2023-04-07T10:32:49;102155.69;;;6.85;100.00
13732;BME280;6937;56.096;12.664;2023-04-07T10:35:17;102173.31;;;6.88;100.00
13732;BME280;6937;56.096;12.664;2023-04-07T10:40:29;102187.72;;;7.05;100.00
13732;BME280;6937;56.096;12.664;2023-04-07T10:42:55;102195.44;;;7.13;100.00
13732;BME280;6937;56.096;12.664;2023-04-07T10:48:13;102203.22;;;7.19;100.00
13732;BME280;6937;56.096;12.664;2023-04-07T10:50:39;102215.41;;;7.24;100.00
13732;BME280;6937;56.096;12.664;2023-04-07T10:55:39;102219.59;;;7.56;100.00
13732;BME280;6937;56.096;12.664;2023-04-07T10:58:14;102228.72;;;7.72;100.00
13732;BME280;6937;56.096;12.664;2023-04-07T11:00:40;102239.84;;;7.84;100.00
13732;BME280;6937;56.096;12.664;2023-04-07T11:03:10;102235.00;;;7.95;100.00
13732;BME280;6937;56.096;12.664;2023-04-07T11:05:40;102246.03;;;8.07;100.00
13732;BME280;6937;56.096;12.664;2023-04-07T11:08:05;102252.19;;;8.09;100.00
13732;BME280;6937;56.096;12.664;2023-04-07T11:10:34;102248.19;;;8.21;100.00
13732;BME280;6937;56.096;12.664;2023-04-07T11:13:07;102245.31;;;8.25;100.00
13732;BME280;6937;56.096;12.664;2023-04-07T11:15:36;102251.91;;;8.17;100.00
13732;BME280;6937;56.096;12.664;2023-04-07T11:18:12;102255.41;;;8.17;100.00
13732;BME280;6937;56.096;12.664;2023-04-07T11:23:12;102265.66;;;8.28;100.00
13732;BME280;6937;56.096;12.664;2023-04-07T11:25:38;102268.16;;;8.33;100.00
13732;BME280;6937;56.096;12.664;2023-04-07T11:28:03;102276.97;;;8.35;100.00
13732;BME280;6937;56.096;12.664;2023-04-07T11:30:29;102273.94;;;8.44;100.00
13732;BME280;6937;56.096;12.664;2023-04-07T11:32:55;102269.56;;;8.43;100.00
13732;BME280;6937;56.096;12.664;2023-04-07T11:35:24;102269.34;;;8.47;100.00
13732;BME280;6937;56.096;12.664;2023-04-07T11:37:56;102277.16;;;8.52;100.00
13732;BME280;6937;56.096;12.664;2023-04-07T11:40:33;102274.19;;;8.59;100.00
13732;BME280;6937;56.096;12.664;2023-04-07T11:42:59;102277.59;;;8.63;100.00
13732;BME280;6937;56.096;12.664;2023-04-07T11:45:25;102288.66;;;8.76;100.00
13732;BME280;6937;56.096;12.664;2023-04-07T11:47:50;102284.13;;;8.78;100.00
13732;BME280;6937;56.096;12.664;2023-04-07T11:50:16;102283.19;;;8.79;100.00
13732;BME280;6937;56.096;12.664;2023-04-07T11:52:46;102284.53;;;8.89;100.00
13732;BME280;6937;56.096;12.664;2023-04-07T11:55:22;102294.38;;;8.88;100.00
13732;BME280;6937;56.096;12.664;2023-04-07T11:57:49;102292.81;;;8.83;100.00
13732;BME280;6937;56.096;12.664;2023-04-07T12:00:18;102294.84;;;8.76;100.00
13732;BME280;6937;56.096;12.664;2023-04-07T12:02:44;102296.38;;;8.82;100.00
13732;BME280;6937;56.096;12.664;2023-04-07T12:05:10;102301.31;;;8.92;100.00
13732;BME280;6937;56.096;12.664;2023-04-07T12:07:36;102297.88;;;9.10;100.00
13732;BME280;6937;56.096;12.664;2023-04-07T12:10:22;102295.34;;;9.28;100.00
13732;BME280;6937;56.096;12.664;2023-04-07T12:12:49;102304.09;;;9.31;100.00
13732;BME280;6937;56.096;12.664;2023-04-07T12:15:15;102302.31;;;9.32;100.00
13732;BME280;6937;56.096;12.664;2023-04-07T12:17:45;102290.50;;;9.37;100.00
13732;BME280;6937;56.096;12.664;2023-04-07T12:20:11;102292.97;;;9.42;100.00
13732;BME280;6937;56.096;12.664;2023-04-07T12:22:37;102300.09;;;9.41;100.00
13732;BME280;6937;56.096;12.664;2023-04-07T12:25:02;102297.72;;;9.55;100.00
13732;BME280;6937;56.096;12.664;2023-04-07T12:27:28;102289.09;;;9.69;100.00
13732;BME280;6937;56.096;12.664;2023-04-07T12:29:53;102282.69;;;9.73;100.00
13732;BME280;6937;56.096;12.664;2023-04-07T12:32:18;102286.88;;;9.79;100.00
13732;BME280;6937;56.096;12.664;2023-04-07T12:34:44;102284.47;;;9.93;100.00
13732;BME280;6937;56.096;12.664;2023-04-07T12:37:09;102278.88;;;9.97;100.00
13732;BME280;6937;56.096;12.664;2023-04-07T12:39:34;102284.31;;;9.96;100.00
13732;BME280;6937;56.096;12.664;2023-04-07T12:42:00;102273.34;;;10.02;100.00
13732;BME280;6937;56.096;12.664;2023-04-07T12:44:25;102270.13;;;10.14;100.00
13732;BME280;6937;56.096;12.664;2023-04-07T12:46:51;102273.34;;;10.22;100.00
13732;BME280;6937;56.096;12.664;2023-04-07T12:49:16;102271.81;;;10.35;100.00
13732;BME280;6937;56.096;12.664;2023-04-07T12:51:41;102262.50;;;10.44;100.00
13732;BME280;6937;56.096;12.664;2023-04-07T12:54:07;102261.03;;;10.55;100.00
13732;BME280;6937;56.096;12.664;2023-04-07T12:56:32;102264.28;;;10.43;100.00
13732;BME280;6937;56.096;12.664;2023-04-07T12:58:58;102271.53;;;10.41;100.00
13732;BME280;6937;56.096;12.664;2023-04-07T13:01:24;102263.16;;;10.49;100.00